KHRO

Boone County Airport

Harrison, Arkansas, USA
METAR KHRO 250053Z AUTO 13004KT 10SM CLR 20/19 A3006 RMK AO2 SLP169 T02000194
Observed Flight Rules
May-25 @ 00:53 UTC (19 minutes ago) Visual Flight Rules
Wind Visibility Clouds
130° at 4 knots 10 miles
  • Clear skies
Temperatures Readings
Current 20°C / 68°F
Dewpoint 19°C / 66°F
Humidity 94%
Altimeter 30.06" Hg
Pressure 1016.9 hPa
Elevation 417
METAR KHRO 250053Z AUTO 13004KT 10SM CLR 20/19 A3006 RMK AO2 SLP169 T02000194
Observed Flight Rules
May-25 @ 00:53 UTC
(19 minutes ago)
VFR
Wind Visibility
130° at 4 knots 10 miles
Clouds
  • Clear skies
Temperature Dewpoint
20°C / 68°F 19°C / 66°F
Humidity Altimeter Pressure
94% 30.06" Hg 1016.9 hPa